Terminal Aerodrome Forecast
Issued by NWS

Home | Current Version | Previous Version | Text Only | Print | Product List | Glossary On
Versions: 1 2 3 4 5 6 7 8 9 10 11 12 13 14 15 16 17 18 19
375
FTUS44 KLZK 281121
TAFLLQ
TAF
KLLQ 281121Z 2812/2912 VRB02KT 6SM BR VCSH SCT005 BKN020
      TEMPO 2812/2814 5SM -SHRA BR BKN005
     FM281400 22006KT P6SM -SHRA SCT030 OVC060
      TEMPO 2814/2818 5SM TSRA BR BKN030CB
     FM290100 23006KT P6SM BKN030
     FM290800 22002KT P6SM VCSH SCT012 SCT050
      TEMPO 2908/2912 3SM -SHRA BR BKN012=

USA.gov is the U.S. government's official web portal to all federal, state and local government web resources and services.